createdAt,value
2019-06-08T00:00:20.567Z,998.45
2019-06-08T00:01:20.501Z,998.47
2019-06-08T00:02:20.589Z,998.43
2019-06-08T00:03:20.438Z,998.43
2019-06-08T00:04:19.169Z,998.51
2019-06-08T00:05:19.246Z,998.45
2019-06-08T00:06:19.159Z,998.34
2019-06-08T00:07:19.130Z,998.35
2019-06-08T00:08:19.275Z,998.40
2019-06-08T00:09:20.812Z,998.37
2019-06-08T00:10:23.592Z,998.26
2019-06-08T00:11:19.082Z,998.28
2019-06-08T00:12:19.080Z,998.19
2019-06-08T00:13:19.792Z,998.22
2019-06-08T00:14:19.177Z,998.17
2019-06-08T00:15:20.180Z,998.14
2019-06-08T00:16:19.347Z,998.10
2019-06-08T00:17:35.841Z,998.09
2019-06-08T00:18:19.396Z,998.14
2019-06-08T00:19:19.402Z,998.08
2019-06-08T00:20:19.726Z,998.08
2019-06-08T00:21:19.666Z,998.08
2019-06-08T00:22:19.784Z,998.12
2019-06-08T00:23:19.968Z,998.07
2019-06-08T00:24:19.858Z,998.06
2019-06-08T00:25:19.541Z,998.00
2019-06-08T00:26:20.002Z,998.02
2019-06-08T00:27:20.218Z,998.06
2019-06-08T00:28:19.197Z,998.05
2019-06-08T00:29:18.846Z,997.97
2019-06-08T00:30:18.858Z,998.01
2019-06-08T00:31:19.967Z,997.95
2019-06-08T00:32:18.808Z,998.03
2019-06-08T00:33:18.806Z,998.09
2019-06-08T00:34:18.785Z,998.18
2019-06-08T00:35:18.799Z,998.26
2019-06-08T00:36:18.822Z,998.32
2019-06-08T00:37:18.819Z,998.34
2019-06-08T00:38:18.885Z,998.33
2019-06-08T00:39:18.932Z,998.32
2019-06-08T00:40:18.948Z,998.32
2019-06-08T00:41:20.714Z,998.34
2019-06-08T00:42:19.320Z,998.31
2019-06-08T00:43:19.129Z,998.27
2019-06-08T00:44:19.235Z,998.18
2019-06-08T00:45:19.996Z,998.16
2019-06-08T00:46:19.390Z,998.14
2019-06-08T00:47:18.613Z,998.19
2019-06-08T00:48:19.541Z,998.23
2019-06-08T00:49:18.585Z,998.25
2019-06-08T00:50:18.817Z,998.22
2019-06-08T00:51:19.008Z,998.22
2019-06-08T00:52:18.907Z,998.29
2019-06-08T00:53:19.719Z,998.30
2019-06-08T00:54:19.325Z,998.37
2019-06-08T00:55:19.475Z,998.40
2019-06-08T00:56:19.439Z,998.46
2019-06-08T00:57:19.618Z,998.51
2019-06-08T00:58:20.313Z,998.51
2019-06-08T00:59:18.443Z,998.47
2019-06-08T01:00:18.432Z,998.46
2019-06-08T01:01:20.814Z,998.39
2019-06-08T01:02:18.445Z,998.45
2019-06-08T01:03:19.587Z,998.51
2019-06-08T01:04:18.644Z,998.51
2019-06-08T01:05:19.754Z,998.46
2019-06-08T01:06:18.816Z,998.40
2019-06-08T01:07:18.323Z,998.43
2019-06-08T01:08:20.154Z,998.52
2019-06-08T01:09:18.300Z,998.51
2019-06-08T01:10:19.221Z,998.51
2019-06-08T01:11:18.632Z,998.52
2019-06-08T01:12:18.697Z,998.44
2019-06-08T01:13:18.834Z,998.43
2019-06-08T01:14:18.916Z,998.55
2019-06-08T01:15:23.824Z,998.61
2019-06-08T01:16:18.828Z,998.64
2019-06-08T01:17:19.267Z,998.69
2019-06-08T01:18:20.701Z,998.72
2019-06-08T01:19:19.162Z,998.75
2019-06-08T01:20:19.421Z,998.73
2019-06-08T01:21:19.431Z,998.80
2019-06-08T01:22:19.377Z,998.77
2019-06-08T01:23:19.438Z,998.72
2019-06-08T01:24:19.530Z,998.69
2019-06-08T01:25:18.105Z,998.75
2019-06-08T01:26:18.095Z,998.77
2019-06-08T01:27:18.060Z,998.74
2019-06-08T01:28:18.048Z,998.71
2019-06-08T01:29:18.043Z,998.69
2019-06-08T01:30:18.016Z,998.64
2019-06-08T01:31:18.027Z,998.68
2019-06-08T01:32:17.995Z,998.70
2019-06-08T01:33:18.007Z,998.71
2019-06-08T01:34:17.963Z,998.74
2019-06-08T01:35:17.962Z,998.73
2019-06-08T01:36:17.963Z,998.73
2019-06-08T01:37:17.924Z,998.75
2019-06-08T01:38:17.903Z,998.72
2019-06-08T01:39:17.897Z,998.75
2019-06-08T01:40:17.889Z,998.77
2019-06-08T01:41:17.899Z,998.77
2019-06-08T01:42:17.862Z,998.84
2019-06-08T01:43:17.853Z,998.83
2019-06-08T01:44:17.833Z,998.80
2019-06-08T01:45:17.812Z,998.78
2019-06-08T01:46:17.791Z,998.77
2019-06-08T01:47:17.785Z,998.81
2019-06-08T01:48:20.402Z,998.75
2019-06-08T01:49:17.769Z,998.74
2019-06-08T01:50:17.740Z,998.71
2019-06-08T01:51:17.728Z,998.74
2019-06-08T01:52:17.725Z,998.76
2019-06-08T01:53:17.728Z,998.78
2019-06-08T01:54:17.701Z,998.73
2019-06-08T01:55:17.683Z,998.70
2019-06-08T01:56:17.971Z,998.68
2019-06-08T01:57:17.643Z,998.67
2019-06-08T01:58:17.663Z,998.60
2019-06-08T01:59:17.646Z,998.56
2019-06-08T02:00:29.933Z,998.59
2019-06-08T02:01:17.590Z,998.60
2019-06-08T02:02:17.664Z,998.61
2019-06-08T02:03:17.575Z,998.58
2019-06-08T02:04:17.592Z,998.53
2019-06-08T02:05:17.559Z,998.55
2019-06-08T02:06:17.545Z,998.54
2019-06-08T02:07:17.521Z,998.49
2019-06-08T02:08:17.636Z,998.49
2019-06-08T02:09:17.488Z,998.58
2019-06-08T02:10:17.476Z,998.58
2019-06-08T02:11:17.466Z,998.55
2019-06-08T02:12:17.454Z,998.53
2019-06-08T02:13:17.443Z,998.52
2019-06-08T02:14:17.441Z,998.48
2019-06-08T02:15:17.447Z,998.52
2019-06-08T02:16:17.394Z,998.53
2019-06-08T02:17:17.378Z,998.50
2019-06-08T02:18:17.384Z,998.50
2019-06-08T02:19:17.351Z,998.49
2019-06-08T02:20:17.365Z,998.47
2019-06-08T02:21:17.320Z,998.42
2019-06-08T02:22:17.314Z,998.41
2019-06-08T02:23:17.299Z,998.44
2019-06-08T02:24:17.324Z,998.43
2019-06-08T02:25:17.308Z,998.45
2019-06-08T02:26:17.283Z,998.47
2019-06-08T02:27:17.262Z,998.44
2019-06-08T02:28:17.243Z,998.46
2019-06-08T02:29:17.220Z,998.43
2019-06-08T02:30:17.337Z,998.45
2019-06-08T02:31:17.193Z,998.42
2019-06-08T02:32:17.188Z,998.42
2019-06-08T02:33:17.168Z,998.43
2019-06-08T02:34:17.156Z,998.41
2019-06-08T02:35:17.139Z,998.44
2019-06-08T02:36:17.162Z,998.41
2019-06-08T02:37:17.130Z,998.41
2019-06-08T02:38:17.108Z,998.41
2019-06-08T02:39:17.082Z,998.43
2019-06-08T02:40:17.073Z,998.45
2019-06-08T02:41:17.063Z,998.48
2019-06-08T02:42:17.068Z,998.46
2019-06-08T02:43:17.065Z,998.46
2019-06-08T02:44:17.024Z,998.46
2019-06-08T02:45:17.000Z,998.49
2019-06-08T02:46:16.984Z,998.48
2019-06-08T02:47:16.995Z,998.49
2019-06-08T02:48:16.960Z,998.53
2019-06-08T02:49:16.937Z,998.45
2019-06-08T02:50:16.930Z,998.51
2019-06-08T02:51:16.918Z,998.54
2019-06-08T02:52:16.913Z,998.55
2019-06-08T02:53:17.054Z,998.56
2019-06-08T02:54:16.888Z,998.60
2019-06-08T02:55:16.874Z,998.55
2019-06-08T02:56:16.858Z,998.60
2019-06-08T02:57:16.832Z,998.55
2019-06-08T02:58:16.835Z,998.57
2019-06-08T02:59:16.846Z,998.61
2019-06-08T03:00:16.957Z,998.61
2019-06-08T03:01:16.792Z,998.67
2019-06-08T03:02:16.764Z,998.65
2019-06-08T03:03:16.753Z,998.64
2019-06-08T03:04:16.740Z,998.67
2019-06-08T03:05:16.727Z,998.62
2019-06-08T03:06:16.793Z,998.63
2019-06-08T03:07:16.705Z,998.60
2019-06-08T03:08:16.679Z,998.64
2019-06-08T03:09:16.670Z,998.66
2019-06-08T03:10:16.663Z,998.73
2019-06-08T03:11:16.652Z,998.74
2019-06-08T03:12:16.643Z,998.79
2019-06-08T03:13:16.620Z,998.90
2019-06-08T03:14:16.604Z,998.93
2019-06-08T03:15:17.327Z,999.00
2019-06-08T03:16:16.583Z,999.04
2019-06-08T03:17:16.598Z,998.97
2019-06-08T03:18:16.866Z,999.04
2019-06-08T03:19:22.433Z,999.06
2019-06-08T03:20:16.525Z,999.09
2019-06-08T03:21:16.541Z,999.07
2019-06-08T03:22:16.650Z,999.09
2019-06-08T03:23:16.554Z,999.05
2019-06-08T03:24:16.802Z,999.07
2019-06-08T03:25:16.456Z,999.11
2019-06-08T03:26:16.453Z,999.12
2019-06-08T03:27:16.436Z,999.11
2019-06-08T03:28:16.453Z,999.14
2019-06-08T03:29:16.402Z,999.13
2019-06-08T03:30:18.975Z,999.09
2019-06-08T03:31:16.402Z,999.12
2019-06-08T03:32:16.365Z,999.16
2019-06-08T03:33:16.390Z,999.18
2019-06-08T03:34:16.329Z,999.18
2019-06-08T03:35:16.315Z,999.22
2019-06-08T03:36:16.324Z,999.24
2019-06-08T03:37:16.290Z,999.35
2019-06-08T03:38:16.342Z,999.41
2019-06-08T03:39:16.279Z,999.39
2019-06-08T03:40:16.253Z,999.39
2019-06-08T03:41:16.263Z,999.41
2019-06-08T03:42:16.226Z,999.40
2019-06-08T03:43:17.231Z,999.48
2019-06-08T03:44:16.212Z,999.33
2019-06-08T03:45:16.308Z,999.35
2019-06-08T03:46:16.172Z,999.35
2019-06-08T03:47:16.151Z,999.40
2019-06-08T03:48:16.132Z,999.35
2019-06-08T03:49:16.115Z,999.37
2019-06-08T03:50:16.109Z,999.30
2019-06-08T03:51:16.134Z,999.28
2019-06-08T03:52:16.086Z,999.35
2019-06-08T03:53:16.080Z,999.26
2019-06-08T03:54:16.145Z,999.29
2019-06-08T03:55:16.040Z,999.24
2019-06-08T03:56:16.097Z,999.33
2019-06-08T03:57:16.011Z,999.26
2019-06-08T03:58:16.050Z,999.27
2019-06-08T03:59:15.987Z,999.30
2019-06-08T04:00:15.980Z,999.30
2019-06-08T04:01:15.969Z,999.30
2019-06-08T04:02:15.958Z,999.34
2019-06-08T04:03:15.925Z,999.29
2019-06-08T04:04:15.933Z,999.24
2019-06-08T04:05:15.899Z,999.25
2019-06-08T04:06:15.907Z,999.22
2019-06-08T04:07:15.885Z,999.22
2019-06-08T04:08:16.765Z,999.24
2019-06-08T04:09:15.851Z,999.24
2019-06-08T04:10:15.839Z,999.30
2019-06-08T04:11:15.822Z,999.30
2019-06-08T04:12:15.829Z,999.31
2019-06-08T04:13:15.809Z,999.32
2019-06-08T04:14:15.777Z,999.29
2019-06-08T04:15:15.771Z,999.30
2019-06-08T04:16:15.783Z,999.35
2019-06-08T04:17:15.730Z,999.29
2019-06-08T04:18:15.742Z,999.31
2019-06-08T04:19:15.721Z,999.27
2019-06-08T04:20:15.701Z,999.26
2019-06-08T04:21:15.715Z,999.28
2019-06-08T04:22:15.682Z,999.28
2019-06-08T04:23:15.692Z,999.24
2019-06-08T04:24:15.632Z,999.24
2019-06-08T04:25:15.630Z,999.24
2019-06-08T04:26:15.616Z,999.26
2019-06-08T04:27:15.627Z,999.19
2019-06-08T04:28:15.594Z,999.20
2019-06-08T04:29:15.572Z,999.23
2019-06-08T04:30:15.570Z,999.21
2019-06-08T04:31:15.791Z,999.26
2019-06-08T04:32:15.531Z,999.23
2019-06-08T04:33:15.520Z,999.26
2019-06-08T04:34:15.543Z,999.26
2019-06-08T04:35:15.521Z,999.28
2019-06-08T04:36:16.358Z,999.27
2019-06-08T04:37:16.013Z,999.30
2019-06-08T04:38:15.457Z,999.32
2019-06-08T04:39:15.455Z,999.33
2019-06-08T04:40:15.427Z,999.34
2019-06-08T04:41:15.795Z,999.36
2019-06-08T04:42:15.405Z,999.43
2019-06-08T04:43:15.379Z,999.37
2019-06-08T04:44:15.365Z,999.37
2019-06-08T04:45:15.378Z,999.38
2019-06-08T04:46:15.369Z,999.40
2019-06-08T04:47:15.329Z,999.44
2019-06-08T04:48:15.314Z,999.47
2019-06-08T04:49:15.308Z,999.49
2019-06-08T04:50:22.370Z,999.52
2019-06-08T04:51:15.289Z,999.54
2019-06-08T04:52:15.261Z,999.55
2019-06-08T04:53:15.247Z,999.53
2019-06-08T04:54:15.240Z,999.56
2019-06-08T04:55:15.215Z,999.55
2019-06-08T04:56:15.268Z,999.57
2019-06-08T04:57:15.186Z,999.58
2019-06-08T04:58:15.176Z,999.60
2019-06-08T04:59:15.169Z,999.60
2019-06-08T05:00:15.150Z,999.63
2019-06-08T05:01:15.139Z,999.64
2019-06-08T05:02:15.126Z,999.65
2019-06-08T05:03:15.149Z,999.69
2019-06-08T05:04:15.114Z,999.75
2019-06-08T05:05:15.075Z,999.78
2019-06-08T05:06:15.066Z,999.70
2019-06-08T05:07:15.070Z,999.81
2019-06-08T05:08:15.039Z,999.74
2019-06-08T05:09:15.049Z,999.73
2019-06-08T05:10:15.012Z,999.75
2019-06-08T05:11:14.999Z,999.78
2019-06-08T05:12:15.089Z,999.80
2019-06-08T05:13:14.995Z,999.85
2019-06-08T05:14:14.968Z,999.82
2019-06-08T05:15:14.948Z,999.83
2019-06-08T05:16:14.929Z,999.82
2019-06-08T05:17:14.920Z,999.78
2019-06-08T05:18:15.041Z,999.82
2019-06-08T05:19:14.893Z,999.80
2019-06-08T05:20:14.875Z,999.80
2019-06-08T05:21:15.779Z,999.84
2019-06-08T05:22:14.847Z,999.84
2019-06-08T05:23:14.838Z,999.83
2019-06-08T05:24:14.860Z,999.90
2019-06-08T05:25:14.820Z,999.94
2019-06-08T05:26:14.804Z,999.86
2019-06-08T05:27:14.790Z,999.94
2019-06-08T05:28:14.795Z,999.83
2019-06-08T05:29:14.776Z,999.84
2019-06-08T05:30:14.763Z,999.82
2019-06-08T05:31:14.761Z,999.91
2019-06-08T05:32:14.725Z,999.88
2019-06-08T05:33:14.708Z,999.90
2019-06-08T05:34:14.701Z,999.88
2019-06-08T05:35:14.903Z,999.95
2019-06-08T05:36:14.774Z,999.94
2019-06-08T05:37:14.656Z,999.95
2019-06-08T05:38:14.674Z,999.97
2019-06-08T05:39:14.631Z,999.96
2019-06-08T05:40:14.637Z,1000.01
2019-06-08T05:41:14.636Z,999.97
2019-06-08T05:42:14.613Z,999.96
2019-06-08T05:43:14.585Z,1000.02
2019-06-08T05:44:14.549Z,999.97
2019-06-08T05:45:14.552Z,1000.04
2019-06-08T05:46:14.540Z,1000.02
2019-06-08T05:47:14.536Z,1000.11
2019-06-08T05:48:14.539Z,1000.09
2019-06-08T05:49:14.507Z,1000.09
2019-06-08T05:50:14.471Z,1000.09
2019-06-08T05:51:16.303Z,1000.11
2019-06-08T05:52:14.449Z,1000.13
2019-06-08T05:53:14.442Z,1000.15
2019-06-08T05:54:14.470Z,1000.15
2019-06-08T05:55:14.453Z,1000.09
2019-06-08T05:56:14.404Z,1000.20
2019-06-08T05:57:14.417Z,1000.16
2019-06-08T05:58:14.378Z,1000.09
2019-06-08T05:59:14.353Z,1000.18
2019-06-08T06:00:15.301Z,1000.10
2019-06-08T06:01:14.332Z,1000.13
2019-06-08T06:02:14.381Z,1000.09
2019-06-08T06:03:14.298Z,1000.16
2019-06-08T06:04:14.296Z,1000.20
2019-06-08T06:05:14.274Z,1000.18
2019-06-08T06:06:14.302Z,1000.18
2019-06-08T06:07:14.249Z,1000.18
2019-06-08T06:08:18.969Z,1000.15
2019-06-08T06:09:14.229Z,1000.19
2019-06-08T06:10:14.225Z,1000.25
2019-06-08T06:11:14.207Z,1000.28
2019-06-08T06:12:17.076Z,1000.17
2019-06-08T06:13:17.614Z,1000.24
2019-06-08T06:14:15.693Z,1000.21
2019-06-08T06:15:14.285Z,1000.11
2019-06-08T06:16:14.130Z,1000.17
2019-06-08T06:17:14.114Z,1000.20
2019-06-08T06:18:14.101Z,1000.21
2019-06-08T06:19:14.081Z,1000.13
2019-06-08T06:20:14.075Z,1000.28
2019-06-08T06:21:14.067Z,1000.19
2019-06-08T06:22:14.329Z,1000.32
2019-06-08T06:23:14.134Z,1000.38
2019-06-08T06:24:14.023Z,1000.30
2019-06-08T06:25:14.006Z,1000.30
2019-06-08T06:26:13.995Z,1000.26
2019-06-08T06:27:14.488Z,1000.37
2019-06-08T06:28:14.295Z,1000.41
2019-06-08T06:29:13.964Z,1000.40
2019-06-08T06:30:13.975Z,1000.39
2019-06-08T06:31:13.931Z,1000.49
2019-06-08T06:32:14.760Z,1000.45
2019-06-08T06:33:13.883Z,1000.43
2019-06-08T06:34:14.815Z,1000.47
2019-06-08T06:35:13.874Z,1000.44
2019-06-08T06:36:13.862Z,1000.50
2019-06-08T06:37:13.924Z,1000.51
2019-06-08T06:38:14.407Z,1000.52
2019-06-08T06:39:13.893Z,1000.57
2019-06-08T06:40:13.853Z,1000.45
2019-06-08T06:41:13.783Z,1000.51
2019-06-08T06:42:13.893Z,1000.60
2019-06-08T06:43:13.959Z,1000.59
2019-06-08T06:44:13.850Z,1000.64
2019-06-08T06:45:14.434Z,1000.67
2019-06-08T06:46:13.869Z,1000.70
2019-06-08T06:47:13.835Z,1000.69
2019-06-08T06:48:13.944Z,1000.75
2019-06-08T06:49:13.804Z,1000.79
2019-06-08T06:50:16.456Z,1000.78
2019-06-08T06:51:25.652Z,1000.81
2019-06-08T06:52:13.775Z,1000.84
2019-06-08T06:53:13.756Z,1000.86
2019-06-08T06:54:14.764Z,1000.90
2019-06-08T06:55:13.714Z,1000.91
2019-06-08T06:56:13.706Z,1000.92
2019-06-08T06:57:13.699Z,1000.89
2019-06-08T06:58:13.758Z,1000.92
2019-06-08T06:59:13.656Z,1000.98
2019-06-08T07:00:13.670Z,1000.97
2019-06-08T07:01:13.634Z,1000.96
2019-06-08T07:02:13.607Z,1001.12
2019-06-08T07:03:13.601Z,1001.08
2019-06-08T07:04:13.717Z,1001.19
2019-06-08T07:05:13.585Z,1001.14
2019-06-08T07:06:13.558Z,1001.16
2019-06-08T07:07:13.562Z,1001.21
2019-06-08T07:08:14.436Z,1001.11
2019-06-08T07:09:13.518Z,1001.22
2019-06-08T07:10:13.604Z,1001.23
2019-06-08T07:11:13.497Z,1001.18
2019-06-08T07:12:13.482Z,1001.28
2019-06-08T07:13:13.461Z,1001.28
2019-06-08T07:14:13.451Z,1001.17
2019-06-08T07:15:13.437Z,1001.36
2019-06-08T07:16:18.611Z,1001.32
2019-06-08T07:17:13.416Z,1001.40
2019-06-08T07:18:13.404Z,1001.25
2019-06-08T07:19:13.394Z,1001.41
2019-06-08T07:20:13.377Z,1001.34
2019-06-08T07:21:13.352Z,1001.42
2019-06-08T07:22:13.430Z,1001.38
2019-06-08T07:23:13.329Z,1001.48
2019-06-08T07:24:13.312Z,1001.49
2019-06-08T07:25:13.302Z,1001.58
2019-06-08T07:26:13.290Z,1001.57
2019-06-08T07:27:13.365Z,1001.65
2019-06-08T07:28:13.255Z,1001.53
2019-06-08T07:29:13.247Z,1001.57
2019-06-08T07:30:13.272Z,1001.68
2019-06-08T07:31:13.230Z,1001.66
2019-06-08T07:32:13.404Z,1001.69
2019-06-08T07:33:13.188Z,1001.49
2019-06-08T07:34:13.175Z,1001.69
2019-06-08T07:35:13.174Z,1001.68
2019-06-08T07:36:13.148Z,1001.77
2019-06-08T07:37:13.130Z,1001.74
2019-06-08T07:38:13.209Z,1001.82
2019-06-08T07:39:13.198Z,1001.83
2019-06-08T07:40:13.100Z,1001.87
2019-06-08T07:41:13.086Z,1001.83
2019-06-08T07:42:13.073Z,1001.85
2019-06-08T07:43:13.058Z,1001.82
2019-06-08T07:44:13.155Z,1001.81
2019-06-08T07:45:13.031Z,1001.83
2019-06-08T07:46:13.023Z,1001.83
2019-06-08T07:47:13.002Z,1001.89
2019-06-08T07:48:12.986Z,1001.90
2019-06-08T07:49:12.988Z,1001.80
2019-06-08T07:50:12.964Z,1001.88
2019-06-08T07:51:12.951Z,1001.88
2019-06-08T07:52:12.965Z,1001.93
2019-06-08T07:53:12.946Z,1001.88
2019-06-08T07:54:13.005Z,1001.94
2019-06-08T07:55:13.090Z,1001.88
2019-06-08T07:56:12.881Z,1001.86
2019-06-08T07:57:12.863Z,1001.86
2019-06-08T07:58:12.850Z,1001.93
2019-06-08T07:59:12.839Z,1001.89
2019-06-08T08:00:12.820Z,1001.96
2019-06-08T08:01:12.910Z,1001.95
2019-06-08T08:02:12.793Z,1002.00
2019-06-08T08:03:12.796Z,1001.93
2019-06-08T08:04:13.463Z,1001.93
2019-06-08T08:05:12.760Z,1002.01
2019-06-08T08:06:12.948Z,1002.00
2019-06-08T08:07:12.729Z,1002.01
2019-06-08T08:08:12.736Z,1002.05
2019-06-08T08:09:12.709Z,1001.99
2019-06-08T08:10:12.718Z,1002.05
2019-06-08T08:11:12.687Z,1002.02
2019-06-08T08:12:12.759Z,1002.02
2019-06-08T08:13:12.993Z,1002.06
2019-06-08T08:14:12.633Z,1002.11
2019-06-08T08:16:13.465Z,1002.10
2019-06-08T08:17:12.997Z,1002.09
2019-06-08T08:18:13.682Z,1002.11
2019-06-08T08:19:12.982Z,1002.14
2019-06-08T08:20:13.054Z,1002.08
2019-06-08T08:21:22.166Z,1002.17
2019-06-08T08:22:25.976Z,1002.18
2019-06-08T08:23:13.002Z,1002.11
2019-06-08T08:24:12.936Z,1002.10
2019-06-08T08:25:12.888Z,1002.16
2019-06-08T08:26:12.872Z,1002.14
2019-06-08T08:27:12.399Z,1002.21
2019-06-08T08:28:12.460Z,1002.24
2019-06-08T08:29:12.381Z,1002.11
2019-06-08T08:30:12.354Z,1002.16
2019-06-08T08:31:15.192Z,1002.27
2019-06-08T08:32:12.333Z,1002.27
2019-06-08T08:33:12.474Z,1002.14
2019-06-08T08:34:12.308Z,1002.09
2019-06-08T08:35:12.290Z,1002.14
2019-06-08T08:36:12.272Z,1002.25
2019-06-08T08:37:12.262Z,1002.25
2019-06-08T08:38:12.176Z,1002.17
2019-06-08T08:39:12.171Z,1002.16
2019-06-08T08:40:12.140Z,1002.22
2019-06-08T08:41:12.137Z,1002.21
2019-06-08T08:42:12.119Z,1002.23
2019-06-08T08:43:12.106Z,1002.40
2019-06-08T08:44:12.118Z,1002.24
2019-06-08T08:45:12.075Z,1002.21
2019-06-08T08:46:12.065Z,1002.36
2019-06-08T08:47:12.049Z,1002.23
2019-06-08T08:48:24.484Z,1002.24
2019-06-08T08:49:13.088Z,1002.27
2019-06-08T08:50:12.004Z,1002.32
2019-06-08T08:51:11.996Z,1002.33
2019-06-08T08:52:11.990Z,1002.35
2019-06-08T08:53:11.971Z,1002.39
2019-06-08T08:54:11.998Z,1002.32
2019-06-08T08:55:11.942Z,1002.38
2019-06-08T08:56:11.948Z,1002.35
2019-06-08T08:57:11.909Z,1002.43
2019-06-08T08:58:11.907Z,1002.44
2019-06-08T08:59:11.887Z,1002.37
2019-06-08T09:00:11.901Z,1002.45
2019-06-08T09:01:11.872Z,1002.42
2019-06-08T09:02:11.840Z,1002.46
2019-06-08T09:03:25.995Z,1002.25
2019-06-08T09:04:11.828Z,1002.51
2019-06-08T09:05:11.834Z,1002.67
2019-06-08T09:06:11.791Z,1002.57
2019-06-08T09:07:11.801Z,1002.52
2019-06-08T09:08:11.774Z,1002.56
2019-06-08T09:09:11.770Z,1002.68
2019-06-08T09:10:11.877Z,1002.57
2019-06-08T09:11:11.774Z,1002.69
2019-06-08T09:12:11.719Z,1002.72
2019-06-08T09:13:12.138Z,1002.67
2019-06-08T09:14:14.027Z,1002.73
2019-06-08T09:15:11.692Z,1002.83
2019-06-08T09:16:11.699Z,1002.84
2019-06-08T09:17:11.659Z,1002.81
2019-06-08T09:18:11.641Z,1002.89
2019-06-08T09:19:11.632Z,1002.86
2019-06-08T09:20:15.332Z,1002.86
2019-06-08T09:21:11.819Z,1002.91
2019-06-08T09:22:11.641Z,1002.92
2019-06-08T09:23:16.234Z,1002.91
2019-06-08T09:24:11.853Z,1002.96
2019-06-08T09:25:13.627Z,1002.96
2019-06-08T09:26:13.118Z,1003.01
2019-06-08T09:27:11.578Z,1003.03
2019-06-08T09:28:11.573Z,1003.00
2019-06-08T09:29:11.607Z,1003.05
2019-06-08T09:30:11.574Z,1003.11
2019-06-08T09:31:12.947Z,1003.07
2019-06-08T09:32:11.566Z,1003.18
2019-06-08T09:33:11.480Z,1003.08
2019-06-08T09:34:15.201Z,1003.06
2019-06-08T09:35:11.493Z,1003.11
2019-06-08T09:36:11.530Z,1003.14
2019-06-08T09:37:11.444Z,1003.14
2019-06-08T09:38:11.490Z,1003.19
2019-06-08T09:39:13.173Z,1003.18
2019-06-08T09:40:11.401Z,1003.12
2019-06-08T09:41:11.409Z,1003.17
2019-06-08T09:42:11.387Z,1003.19
2019-06-08T09:43:13.225Z,1003.19
2019-06-08T09:44:12.002Z,1003.20
2019-06-08T09:45:11.369Z,1003.22
2019-06-08T09:46:11.329Z,1003.29
2019-06-08T09:47:12.504Z,1003.24
2019-06-08T09:48:11.366Z,1003.17
2019-06-08T09:49:12.034Z,1003.31
2019-06-08T09:50:11.265Z,1003.29
2019-06-08T09:51:11.312Z,1003.29
2019-06-08T09:52:11.274Z,1003.26
2019-06-08T09:53:24.362Z,1003.24
2019-06-08T09:54:12.809Z,1003.29
2019-06-08T09:55:11.211Z,1003.32
2019-06-08T09:56:11.191Z,1003.31
2019-06-08T09:57:11.172Z,1003.30
2019-06-08T09:58:11.885Z,1003.33
2019-06-08T09:59:14.033Z,1003.36
2019-06-08T10:00:17.909Z,1003.48
2019-06-08T10:01:12.348Z,1003.40
2019-06-08T10:02:12.890Z,1003.42
2019-06-08T10:03:11.168Z,1003.40
2019-06-08T10:04:11.095Z,1003.45
2019-06-08T10:05:11.073Z,1003.43
2019-06-08T10:06:12.351Z,1003.46
2019-06-08T10:07:11.039Z,1003.45
2019-06-08T10:08:11.050Z,1003.47
2019-06-08T10:09:11.104Z,1003.53
2019-06-08T10:10:11.043Z,1003.51
2019-06-08T10:11:11.025Z,1003.57
2019-06-08T10:12:11.957Z,1003.64
2019-06-08T10:13:11.005Z,1003.62
2019-06-08T10:14:12.275Z,1003.68
2019-06-08T10:15:11.119Z,1003.63
2019-06-08T10:16:11.096Z,1003.64
2019-06-08T10:17:10.928Z,1003.63
2019-06-08T10:18:10.949Z,1003.61
2019-06-08T10:19:10.892Z,1003.69
2019-06-08T10:20:10.876Z,1003.66
2019-06-08T10:21:10.928Z,1003.73
2019-06-08T10:22:10.815Z,1003.81
2019-06-08T10:23:27.170Z,1003.71
2019-06-08T10:24:10.818Z,1003.77
2019-06-08T10:25:11.335Z,1003.74
2019-06-08T10:26:10.783Z,1003.73
2019-06-08T10:27:11.648Z,1003.74
2019-06-08T10:28:14.189Z,1003.77
2019-06-08T10:29:10.907Z,1003.78
2019-06-08T10:30:10.870Z,1003.78
2019-06-08T10:31:10.738Z,1003.79
2019-06-08T10:32:10.671Z,1003.85
2019-06-08T10:33:10.656Z,1003.80
2019-06-08T10:34:11.353Z,1003.85
2019-06-08T10:35:10.857Z,1003.83
2019-06-08T10:36:12.886Z,1003.82
2019-06-08T10:37:13.347Z,1003.85
2019-06-08T10:38:12.036Z,1003.83
2019-06-08T10:39:11.734Z,1003.91
2019-06-08T10:40:10.571Z,1003.87
2019-06-08T10:41:17.249Z,1003.90
2019-06-08T10:42:11.538Z,1003.92
2019-06-08T10:43:11.515Z,1003.85
2019-06-08T10:44:13.860Z,1004.00
2019-06-08T10:45:14.374Z,1003.98
2019-06-08T10:46:16.632Z,1003.88
2019-06-08T10:47:11.939Z,1003.87
2019-06-08T10:48:10.482Z,1003.89
2019-06-08T10:49:14.221Z,1003.91
2019-06-08T10:50:15.160Z,1003.98
2019-06-08T10:51:12.866Z,1004.00
2019-06-08T10:52:12.198Z,1003.95
2019-06-08T10:53:12.429Z,1003.93
2019-06-08T10:54:11.524Z,1004.01
2019-06-08T10:55:12.057Z,1003.99
2019-06-08T10:56:12.305Z,1003.90
2019-06-08T10:57:10.369Z,1003.99
2019-06-08T10:58:15.420Z,1003.95
2019-06-08T10:59:12.255Z,1004.00
2019-06-08T11:00:18.012Z,1004.08
2019-06-08T11:01:12.422Z,1004.06
2019-06-08T11:02:13.886Z,1004.08
2019-06-08T11:03:11.849Z,1004.10
2019-06-08T11:04:10.315Z,1004.14
2019-06-08T11:05:13.876Z,1004.22
2019-06-08T11:06:12.825Z,1004.32
2019-06-08T11:07:15.791Z,1004.16
2019-06-08T11:08:14.271Z,1004.13
2019-06-08T11:09:14.359Z,1004.09
2019-06-08T11:10:12.184Z,1004.09
2019-06-08T11:11:11.984Z,1004.16
2019-06-08T11:12:14.614Z,1004.19
2019-06-08T11:13:14.853Z,1004.18
2019-06-08T11:14:12.867Z,1004.21
2019-06-08T11:15:11.886Z,1004.31
2019-06-08T11:16:12.981Z,1004.26
2019-06-08T11:17:11.273Z,1004.24
2019-06-08T11:18:12.631Z,1004.19
2019-06-08T11:19:12.974Z,1004.23
2019-06-08T11:20:11.898Z,1004.33
2019-06-08T11:21:12.642Z,1004.25
2019-06-08T11:22:14.215Z,1004.29
2019-06-08T11:23:12.349Z,1004.19
2019-06-08T11:24:21.718Z,1004.25
2019-06-08T11:25:16.126Z,1004.28
2019-06-08T11:26:19.148Z,1004.32
2019-06-08T11:27:12.506Z,1004.34
2019-06-08T11:28:14.638Z,1004.23
2019-06-08T11:29:13.400Z,1004.32
2019-06-08T11:30:20.109Z,1004.24
2019-06-08T11:31:15.489Z,1004.37
2019-06-08T11:32:12.331Z,1004.33
2019-06-08T11:33:12.421Z,1004.33
2019-06-08T11:34:10.222Z,1004.26
2019-06-08T11:35:12.385Z,1004.28
2019-06-08T11:36:13.775Z,1004.27
2019-06-08T11:37:13.031Z,1004.30
2019-06-08T11:38:12.586Z,1004.30
2019-06-08T11:39:12.584Z,1004.37
2019-06-08T11:40:12.340Z,1004.31
2019-06-08T11:41:13.142Z,1004.32
2019-06-08T11:42:12.855Z,1004.25
2019-06-08T11:43:10.687Z,1004.31
2019-06-08T11:44:12.459Z,1004.23
2019-06-08T11:45:12.693Z,1004.30
2019-06-08T11:46:10.689Z,1004.25
2019-06-08T11:47:12.814Z,1004.38
2019-06-08T11:48:10.861Z,1004.31
2019-06-08T11:49:14.337Z,1004.28
2019-06-08T11:50:13.101Z,1004.33
2019-06-08T11:51:12.887Z,1004.32
2019-06-08T11:52:11.193Z,1004.31
2019-06-08T11:53:13.532Z,1004.38
2019-06-08T11:54:27.169Z,1004.31
2019-06-08T11:55:11.233Z,1004.51
2019-06-08T11:56:13.083Z,1004.34
2019-06-08T11:57:11.685Z,1004.30
2019-06-08T11:58:12.142Z,1004.30
2019-06-08T11:59:12.880Z,1004.42
2019-06-08T12:00:23.447Z,1004.33
2019-06-08T12:01:13.275Z,1004.39
2019-06-08T12:02:12.707Z,1004.36
2019-06-08T12:03:11.512Z,1004.46
2019-06-08T12:04:09.928Z,1004.40
2019-06-08T12:05:12.622Z,1004.46
2019-06-08T12:06:12.935Z,1004.45
2019-06-08T12:07:11.155Z,1004.43
2019-06-08T12:08:10.607Z,1004.50
2019-06-08T12:09:11.138Z,1004.63
2019-06-08T12:10:11.358Z,1004.66
2019-06-08T12:11:12.033Z,1004.59
2019-06-08T12:12:17.142Z,1004.61
2019-06-08T12:13:11.621Z,1004.54
2019-06-08T12:14:11.078Z,1004.58
2019-06-08T12:15:11.582Z,1004.53
2019-06-08T12:16:15.800Z,1004.65
2019-06-08T12:17:13.517Z,1004.66